Česky Dansk Deutsch English Español Suomi Français Magyar Italiano Nederlands norsk Polski Português svenska Türkçe

 

Het Weer

Impfondo (Congo)

08:00, 12 juni 2016 (GMT)

NWNNE
WE
SWSSE
Home            
Impfondo Mbandaka Ouesso Gemena Bangui Makoua Boende Berberati Inongo Bossembele Souanke Gamboma Mekambo M'Pouya Alindao Batouri Lomie Bossangoa Bambari Bandundu Bouar Djambala Makokou

Om een weerknop op uw website of weblog te plaatsen, copieer onderstaande code en plak die in uw pagina. In het eerste vakje staat HTML-code, in het tweede vakje UBB-code.


Add to Google

Details

Wind speed:2 bf, 4 kn, 2.1 m/s, 4.6 miles/h, 7.4 km/h
Wind direction:NE, 040°
Visibility:Greater than 10000 m, 10 km, 32800 ft, 6.2 miles
Clouds:Ein wenig bewölkt at 1000 ft, 305 m
Temperature:27°C, 81°F
Gefühlte Temperatur:31°C, 87°F
Dew-point:24°C, 75°F
Atmospheric pressure:1017 hPa, 762.8 mmHg, 30.03 inHg, 1.004 atm
Relative humidity:83.7 %
METAR:FCOI 120800Z 04004KT 9999 FEW010 27/24 Q1017

Snelkoppelingen

Actuele weersinformatie van de hele wereld. Voeg locaties toe met het plus (+) symbool. Deze snelkoppelingen kunnen worden toegevoegd aan Google.

Lid van de Technetium groep

website free tracking
StatCounter NetStat W3C Validator

24-04-2018 12:26:16
astro.technetium.be money.technetium.be phote.technetium.be tafeltennistafel.technetium.be www.ligfiets.net